Time;durP1;ratioP1;P1;durP2;ratioP2;P2;SDS_P1;SDS_P2;PMS_P1;PMS_P2;Temp;Humidity;BMP_temperature;BMP_pressure;BME280_temperature;BME280_humidity;BME280_pressure;Samples;Min_cycle;Max_cycle;Signal;HPM_P1;HPM_P2
2024/01/22 00:00:15;;;;;;;8.40;4.90;;;;;;;;;;4982670;28;20206;-79
2024/01/22 00:02:42;;;;;;;8.67;4.90;;;;;;;;;;4968607;28;20217;-79
2024/01/22 00:05:10;;;;;;;8.37;4.73;;;;;;;;;;5010737;28;20341;-78
2024/01/22 00:07:36;;;;;;;9.60;5.00;;;;;;;;;;5028991;28;20229;-80
2024/01/22 00:10:03;;;;;;;8.37;5.17;;;;;;;;;;5017026;28;20193;-79
2024/01/22 00:12:30;;;;;;;8.00;4.90;;;;;;;;;;5037207;28;20190;-79
2024/01/22 00:14:56;;;;;;;8.87;5.23;;;;;;;;;;5013683;28;20233;-80
2024/01/22 00:17:22;;;;;;;7.17;5.03;;;;;;;;;;5017434;28;20233;-79
2024/01/22 00:19:48;;;;;;;8.37;4.80;;;;;;;;;;4972308;28;20186;-79
2024/01/22 00:22:18;;;;;;;11.93;6.80;;;;;;;;;;4973883;28;20269;-80
2024/01/22 00:24:44;;;;;;;12.10;6.33;;;;;;;;;;4952103;28;20218;-78
2024/01/22 00:27:10;;;;;;;9.60;5.53;;;;;;;;;;4934666;28;20213;-77
2024/01/22 00:29:37;;;;;;;14.90;7.60;;;;;;;;;;4879069;28;20618;-78
2024/01/22 00:32:03;;;;;;;9.93;5.40;;;;;;;;;;4861186;28;20174;-79
2024/01/22 00:34:30;;;;;;;11.87;5.90;;;;;;;;;;4945247;28;21037;-80
2024/01/22 00:36:56;;;;;;;17.27;7.40;;;;;;;;;;4932717;28;20249;-79
2024/01/22 00:39:22;;;;;;;11.10;6.67;;;;;;;;;;4856201;28;20233;-80
2024/01/22 00:41:48;;;;;;;7.13;4.90;;;;;;;;;;4879954;28;20187;-79
2024/01/22 00:44:14;;;;;;;9.90;5.40;;;;;;;;;;4848658;28;20210;-80
2024/01/22 00:46:40;;;;;;;9.37;4.93;;;;;;;;;;4944776;28;20638;-79
2024/01/22 00:49:07;;;;;;;11.20;5.03;;;;;;;;;;4907382;28;20191;-76
2024/01/22 00:51:33;;;;;;;7.73;4.47;;;;;;;;;;4885191;28;20738;-79
2024/01/22 00:54:00;;;;;;;11.57;5.47;;;;;;;;;;4887833;28;20192;-80
2024/01/22 00:56:26;;;;;;;11.43;5.73;;;;;;;;;;4830836;28;20248;-79
2024/01/22 00:58:52;;;;;;;13.23;6.50;;;;;;;;;;4934579;28;20442;-76
2024/01/22 01:01:18;;;;;;;16.83;8.40;;;;;;;;;;5002804;28;20207;-79
2024/01/22 01:03:44;;;;;;;10.07;5.80;;;;;;;;;;5024288;28;20178;-79
2024/01/22 01:06:10;;;;;;;10.30;5.30;;;;;;;;;;5016123;28;20860;-79
2024/01/22 01:08:36;;;;;;;13.63;6.57;;;;;;;;;;5032284;28;20190;-79
2024/01/22 01:11:03;;;;;;;12.30;6.60;;;;;;;;;;5026875;28;20323;-79
2024/01/22 01:13:29;;;;;;;8.77;5.47;;;;;;;;;;5023210;28;20179;-78
2024/01/22 01:15:55;;;;;;;9.10;5.10;;;;;;;;;;5010136;28;20240;-79
2024/01/22 01:18:21;;;;;;;6.07;4.50;;;;;;;;;;5011823;28;20197;-79
2024/01/22 01:20:47;;;;;;;8.30;5.07;;;;;;;;;;5007651;28;20548;-79
2024/01/22 01:23:14;;;;;;;8.40;5.00;;;;;;;;;;4982034;28;20193;-78
2024/01/22 01:25:40;;;;;;;8.17;4.90;;;;;;;;;;5026177;28;20616;-79
2024/01/22 01:28:06;;;;;;;8.13;4.10;;;;;;;;;;5009213;28;20217;-79
2024/01/22 01:30:32;;;;;;;9.27;4.60;;;;;;;;;;5018715;28;20249;-79
2024/01/22 01:32:58;;;;;;;7.07;4.07;;;;;;;;;;5022129;28;20206;-79
2024/01/22 01:35:24;;;;;;;11.20;5.30;;;;;;;;;;5028181;28;20697;-79
2024/01/22 01:37:50;;;;;;;5.50;3.90;;;;;;;;;;5016140;28;20607;-79
2024/01/22 01:40:16;;;;;;;8.80;4.87;;;;;;;;;;5029144;28;20191;-79
2024/01/22 01:42:43;;;;;;;8.00;4.10;;;;;;;;;;5031403;28;20186;-80
2024/01/22 01:45:16;;;;;;;9.63;5.00;;;;;;;;;;5000948;28;20223;-79
2024/01/22 01:47:44;;;;;;;7.90;4.13;;;;;;;;;;5022135;28;20214;-79
2024/01/22 01:50:10;;;;;;;7.60;4.10;;;;;;;;;;5028006;28;20178;-79
2024/01/22 01:52:37;;;;;;;8.43;4.53;;;;;;;;;;5003685;28;20183;-79
2024/01/22 01:55:04;;;;;;;10.47;5.00;;;;;;;;;;5009069;28;20222;-79
2024/01/22 01:57:30;;;;;;;11.00;5.57;;;;;;;;;;5020040;28;20191;-80
2024/01/22 01:59:56;;;;;;;7.13;4.20;;;;;;;;;;5027390;28;20278;-80
2024/01/22 02:02:22;;;;;;;5.83;3.63;;;;;;;;;;5011365;28;20190;-79
2024/01/22 02:04:48;;;;;;;7.83;4.20;;;;;;;;;;5006962;28;20226;-80
2024/01/22 02:07:16;;;;;;;8.47;4.30;;;;;;;;;;5031563;28;20215;-79
2024/01/22 02:09:46;;;;;;;6.53;3.37;;;;;;;;;;5031063;28;20220;-79
2024/01/22 02:12:12;;;;;;;7.87;3.93;;;;;;;;;;5004151;28;20199;-79
2024/01/22 02:14:39;;;;;;;5.60;3.20;;;;;;;;;;5028930;28;20210;-79
2024/01/22 02:17:05;;;;;;;5.83;3.50;;;;;;;;;;5024242;28;20233;-78
2024/01/22 02:19:31;;;;;;;5.90;3.00;;;;;;;;;;5024295;28;20805;-79
2024/01/22 02:21:57;;;;;;;9.03;4.07;;;;;;;;;;5027212;28;20280;-80
2024/01/22 02:24:24;;;;;;;7.43;3.50;;;;;;;;;;5019401;28;20536;-79
2024/01/22 02:26:51;;;;;;;7.53;3.80;;;;;;;;;;5021498;28;20202;-79
2024/01/22 02:29:17;;;;;;;7.20;3.40;;;;;;;;;;5021126;28;20186;-78
2024/01/22 02:31:45;;;;;;;7.20;3.23;;;;;;;;;;5022076;28;20183;-79
2024/01/22 02:34:12;;;;;;;4.40;2.57;;;;;;;;;;5020623;28;20265;-79
2024/01/22 02:36:38;;;;;;;6.70;3.07;;;;;;;;;;4999396;28;20237;-80
2024/01/22 02:39:04;;;;;;;5.13;2.80;;;;;;;;;;5006715;28;20190;-78
2024/01/22 02:41:30;;;;;;;7.00;3.17;;;;;;;;;;5021795;28;20187;-79
2024/01/22 02:43:56;;;;;;;4.47;2.47;;;;;;;;;;5020210;28;20248;-78
2024/01/22 02:46:24;;;;;;;5.13;2.70;;;;;;;;;;5002377;28;20713;-79
2024/01/22 02:48:51;;;;;;;8.17;3.10;;;;;;;;;;5017262;28;20245;-79
2024/01/22 02:51:17;;;;;;;6.43;2.60;;;;;;;;;;5024034;28;20273;-78
2024/01/22 02:53:43;;;;;;;7.13;2.87;;;;;;;;;;5004448;28;20555;-78
2024/01/22 02:56:09;;;;;;;4.07;2.60;;;;;;;;;;5015474;28;20210;-78
2024/01/22 02:58:35;;;;;;;6.27;2.60;;;;;;;;;;5004542;28;20195;-80
2024/01/22 03:01:01;;;;;;;7.03;2.67;;;;;;;;;;5027075;28;20274;-79
2024/01/22 03:03:28;;;;;;;6.57;3.40;;;;;;;;;;5005428;28;20197;-80
2024/01/22 03:05:54;;;;;;;8.30;3.63;;;;;;;;;;5008386;28;20233;-79
2024/01/22 03:08:20;;;;;;;6.73;3.00;;;;;;;;;;5029435;28;20186;-79
2024/01/22 03:10:46;;;;;;;4.70;2.90;;;;;;;;;;5027138;28;20529;-78
2024/01/22 03:13:12;;;;;;;6.57;2.50;;;;;;;;;;5014852;28;20176;-79
2024/01/22 03:15:38;;;;;;;4.57;2.53;;;;;;;;;;5004339;28;20284;-79
2024/01/22 03:18:04;;;;;;;4.80;2.40;;;;;;;;;;5012490;28;20175;-80
2024/01/22 03:20:31;;;;;;;5.03;2.30;;;;;;;;;;5008057;28;20183;-80
2024/01/22 03:22:57;;;;;;;3.53;2.40;;;;;;;;;;5023030;28;20187;-79
2024/01/22 03:25:23;;;;;;;6.27;2.30;;;;;;;;;;5024470;28;20211;-80
2024/01/22 03:27:49;;;;;;;4.60;2.33;;;;;;;;;;5026547;28;20207;-80
2024/01/22 03:30:15;;;;;;;4.43;2.13;;;;;;;;;;5020887;28;20186;-79
2024/01/22 03:32:42;;;;;;;3.17;2.30;;;;;;;;;;4993934;28;20194;-80
2024/01/22 03:35:08;;;;;;;4.33;2.30;;;;;;;;;;5028088;28;20209;-79
2024/01/22 03:37:34;;;;;;;4.73;2.40;;;;;;;;;;5030949;28;20892;-79
2024/01/22 03:40:00;;;;;;;4.30;2.20;;;;;;;;;;5032414;28;20198;-79
2024/01/22 03:42:26;;;;;;;5.33;2.27;;;;;;;;;;5024644;28;20198;-80
2024/01/22 03:44:53;;;;;;;5.37;2.30;;;;;;;;;;5025973;28;20217;-80
2024/01/22 03:47:19;;;;;;;5.00;2.30;;;;;;;;;;5026759;28;20317;-80
2024/01/22 03:49:45;;;;;;;4.23;1.80;;;;;;;;;;5023391;28;20666;-79
2024/01/22 03:52:11;;;;;;;5.60;2.43;;;;;;;;;;5010743;28;20281;-80
2024/01/22 03:54:38;;;;;;;3.50;2.30;;;;;;;;;;5031266;28;20209;-79
2024/01/22 03:57:07;;;;;;;3.80;1.80;;;;;;;;;;5021982;28;20277;-80
2024/01/22 03:59:34;;;;;;;2.87;2.00;;;;;;;;;;5020216;28;20712;-80
2024/01/22 04:02:00;;;;;;;4.23;1.90;;;;;;;;;;5026508;28;20670;-79
2024/01/22 04:04:27;;;;;;;6.53;2.37;;;;;;;;;;5007705;28;20593;-79
2024/01/22 04:06:53;;;;;;;4.57;1.87;;;;;;;;;;4995642;28;20268;-79
2024/01/22 04:09:19;;;;;;;3.03;2.00;;;;;;;;;;5019870;28;20194;-80
2024/01/22 04:11:45;;;;;;;5.57;2.30;;;;;;;;;;5023874;28;20186;-79
2024/01/22 04:14:11;;;;;;;3.67;2.40;;;;;;;;;;5026702;28;20249;-79
2024/01/22 04:16:37;;;;;;;3.87;2.30;;;;;;;;;;5021796;28;20214;-79
2024/01/22 04:19:03;;;;;;;3.03;2.03;;;;;;;;;;5031037;28;20183;-79
2024/01/22 04:21:30;;;;;;;3.40;2.17;;;;;;;;;;5026957;28;20225;-79
2024/01/22 04:23:56;;;;;;;3.13;2.00;;;;;;;;;;5029848;28;20191;-79
2024/01/22 04:26:22;;;;;;;3.63;2.10;;;;;;;;;;4998510;28;20227;-80
2024/01/22 04:28:48;;;;;;;3.53;1.97;;;;;;;;;;5021259;28;20179;-79
2024/01/22 04:31:14;;;;;;;5.50;2.20;;;;;;;;;;5023091;28;20182;-78
2024/01/22 04:33:45;;;;;;;4.47;2.33;;;;;;;;;;5015027;28;20200;-79
2024/01/22 04:36:11;;;;;;;4.73;2.10;;;;;;;;;;5025685;28;20763;-80
2024/01/22 04:38:37;;;;;;;8.00;2.30;;;;;;;;;;5029871;28;20240;-80
2024/01/22 04:41:03;;;;;;;3.90;2.10;;;;;;;;;;5027683;28;20686;-80
2024/01/22 04:43:29;;;;;;;5.37;2.20;;;;;;;;;;5023996;28;20174;-78
2024/01/22 04:45:55;;;;;;;3.23;2.27;;;;;;;;;;5008713;28;20304;-78
2024/01/22 04:48:22;;;;;;;3.57;2.23;;;;;;;;;;5023899;28;20234;-79
2024/01/22 04:50:48;;;;;;;2.57;2.10;;;;;;;;;;5030450;28;20181;-80
2024/01/22 04:53:14;;;;;;;3.77;2.10;;;;;;;;;;5022889;28;20195;-79
2024/01/22 04:55:40;;;;;;;3.47;2.20;;;;;;;;;;5032725;28;20205;-78
2024/01/22 04:58:06;;;;;;;3.70;2.00;;;;;;;;;;5026909;28;20210;-80
2024/01/22 05:00:33;;;;;;;6.10;2.23;;;;;;;;;;5023045;28;20191;-80
2024/01/22 05:03:04;;;;;;;4.40;2.13;;;;;;;;;;5021829;28;20674;-79
2024/01/22 05:05:30;;;;;;;4.93;2.10;;;;;;;;;;5018221;28;20203;-80
2024/01/22 05:07:56;;;;;;;3.70;2.20;;;;;;;;;;5019292;28;20435;-80
2024/01/22 05:10:22;;;;;;;2.80;2.10;;;;;;;;;;5023710;28;20305;-79
2024/01/22 05:12:48;;;;;;;3.77;2.20;;;;;;;;;;5029783;28;20206;-79
2024/01/22 05:15:15;;;;;;;3.30;2.10;;;;;;;;;;5029058;28;20205;-80
2024/01/22 05:17:42;;;;;;;3.97;2.00;;;;;;;;;;5029888;28;20171;-79
2024/01/22 05:20:08;;;;;;;5.27;1.90;;;;;;;;;;5035268;28;20251;-79
2024/01/22 05:22:37;;;;;;;2.90;1.83;;;;;;;;;;5033310;28;20213;-79
2024/01/22 05:25:04;;;;;;;3.83;2.00;;;;;;;;;;5031073;28;20242;-79
2024/01/22 05:27:30;;;;;;;2.90;1.90;;;;;;;;;;5008438;28;20217;-79
2024/01/22 05:29:56;;;;;;;2.77;1.90;;;;;;;;;;5008212;28;20198;-80
2024/01/22 05:32:23;;;;;;;3.43;2.07;;;;;;;;;;5005787;28;20552;-79
2024/01/22 05:34:49;;;;;;;3.33;1.80;;;;;;;;;;5023460;28;20201;-79
2024/01/22 05:37:15;;;;;;;4.60;1.87;;;;;;;;;;5008996;28;20293;-78
2024/01/22 05:39:42;;;;;;;3.50;1.90;;;;;;;;;;5010240;28;20673;-79
2024/01/22 05:42:08;;;;;;;4.90;1.83;;;;;;;;;;5042009;28;20186;-78
2024/01/22 05:44:34;;;;;;;2.87;1.70;;;;;;;;;;5026367;28;20231;-79
2024/01/22 05:47:00;;;;;;;3.20;2.08;;;;;;;;;;5021726;28;20517;-79
2024/01/22 05:49:26;;;;;;;3.70;1.90;;;;;;;;;;5027820;28;20190;-80
2024/01/22 05:51:52;;;;;;;3.17;1.63;;;;;;;;;;5018658;28;20181;-78
2024/01/22 05:54:18;;;;;;;3.47;2.07;;;;;;;;;;5005163;28;20676;-78
2024/01/22 05:56:45;;;;;;;2.73;1.80;;;;;;;;;;5021685;28;20174;-77
2024/01/22 05:59:11;;;;;;;3.00;1.80;;;;;;;;;;5029313;28;20186;-79
2024/01/22 06:01:37;;;;;;;4.20;1.70;;;;;;;;;;5026345;28;20662;-79
2024/01/22 06:04:04;;;;;;;3.70;1.60;;;;;;;;;;5011939;28;20761;-80
2024/01/22 06:06:30;;;;;;;2.70;1.60;;;;;;;;;;5022671;28;20210;-79
2024/01/22 06:08:56;;;;;;;2.13;1.60;;;;;;;;;;5023910;28;20613;-80
2024/01/22 06:11:22;;;;;;;2.43;1.70;;;;;;;;;;5023910;28;20181;-79
2024/01/22 06:13:49;;;;;;;3.60;1.83;;;;;;;;;;5011329;28;20178;-81
2024/01/22 06:16:15;;;;;;;2.17;1.63;;;;;;;;;;5022071;28;20208;-80
2024/01/22 06:18:45;;;;;;;3.70;1.80;;;;;;;;;;5021895;28;20669;-76
2024/01/22 06:21:15;;;;;;;2.80;1.80;;;;;;;;;;5021767;28;20779;-80
2024/01/22 06:23:42;;;;;;;3.93;1.80;;;;;;;;;;5021202;28;20182;-82
2024/01/22 06:26:09;;;;;;;2.63;1.60;;;;;;;;;;5011517;28;20203;-80
2024/01/22 06:28:35;;;;;;;2.37;1.60;;;;;;;;;;5028887;28;20193;-78
2024/01/22 06:31:02;;;;;;;2.72;1.60;;;;;;;;;;5026762;28;20443;-81
2024/01/22 06:33:29;;;;;;;2.20;1.65;;;;;;;;;;5028596;28;20436;-83
2024/01/22 06:35:55;;;;;;;1.90;1.40;;;;;;;;;;5032946;28;20227;-83
2024/01/22 06:38:21;;;;;;;3.67;1.70;;;;;;;;;;5007113;28;20559;-83
2024/01/22 06:40:47;;;;;;;3.63;1.97;;;;;;;;;;5017947;28;20582;-83
2024/01/22 06:43:14;;;;;;;3.03;1.50;;;;;;;;;;5027148;28;20186;-83
2024/01/22 06:45:40;;;;;;;4.87;1.67;;;;;;;;;;5026441;28;20571;-83
2024/01/22 06:48:06;;;;;;;2.27;1.60;;;;;;;;;;5010284;28;20187;-83
2024/01/22 06:50:32;;;;;;;2.40;1.70;;;;;;;;;;5009401;28;20178;-84
2024/01/22 06:52:59;;;;;;;2.90;1.60;;;;;;;;;;5001215;28;20188;-83
2024/01/22 06:55:25;;;;;;;3.23;1.80;;;;;;;;;;5027678;28;20566;-83
2024/01/22 06:57:51;;;;;;;3.53;1.83;;;;;;;;;;5026145;28;20193;-79
2024/01/22 07:00:19;;;;;;;2.60;1.77;;;;;;;;;;5016705;28;20269;-78
2024/01/22 07:02:46;;;;;;;3.23;1.70;;;;;;;;;;5016988;28;20186;-78
2024/01/22 07:05:12;;;;;;;3.27;1.90;;;;;;;;;;5016305;28;20309;-80
2024/01/22 07:07:39;;;;;;;2.00;1.53;;;;;;;;;;5035116;28;20202;-79
2024/01/22 07:10:07;;;;;;;2.65;1.60;;;;;;;;;;5028301;28;20983;-85
2024/01/22 07:12:34;;;;;;;2.73;1.70;;;;;;;;;;5033350;28;20194;-82
2024/01/22 07:15:01;;;;;;;3.30;1.73;;;;;;;;;;5016403;28;20928;-88
2024/01/22 07:17:28;;;;;;;2.83;1.85;;;;;;;;;;4997627;28;20856;-79
2024/01/22 07:19:55;;;;;;;2.87;1.57;;;;;;;;;;5029534;28;20627;-77
2024/01/22 07:22:21;;;;;;;2.37;1.43;;;;;;;;;;5027133;28;20232;-76
2024/01/22 07:24:47;;;;;;;3.37;1.70;;;;;;;;;;5028750;28;20357;-79
2024/01/22 07:27:13;;;;;;;3.13;1.60;;;;;;;;;;4991820;28;20210;-86
2024/01/22 07:29:39;;;;;;;4.33;1.90;;;;;;;;;;5013278;28;20670;-86
2024/01/22 07:32:06;;;;;;;2.77;1.70;;;;;;;;;;5001494;28;20179;-86
2024/01/22 07:34:32;;;;;;;2.57;1.50;;;;;;;;;;5032351;28;20206;-86
2024/01/22 07:36:58;;;;;;;3.30;1.80;;;;;;;;;;5030457;28;20190;-80
2024/01/22 07:39:24;;;;;;;2.47;1.67;;;;;;;;;;5008465;28;20325;-82
2024/01/22 07:41:51;;;;;;;2.83;1.90;;;;;;;;;;5035508;28;20673;-85
2024/01/22 07:44:17;;;;;;;2.00;1.50;;;;;;;;;;5031818;28;20186;-87
2024/01/22 07:46:43;;;;;;;2.20;1.50;;;;;;;;;;4988233;28;20211;-86
2024/01/22 07:49:09;;;;;;;3.33;1.57;;;;;;;;;;4998463;28;20191;-87
2024/01/22 07:51:35;;;;;;;4.50;1.70;;;;;;;;;;4997132;28;20187;-86
2024/01/22 07:54:01;;;;;;;2.47;1.60;;;;;;;;;;5012943;28;20574;-87
2024/01/22 07:56:28;;;;;;;2.13;1.57;;;;;;;;;;4996354;28;20187;-86
2024/01/22 07:58:55;;;;;;;3.07;1.53;;;;;;;;;;5009015;28;20194;-86
2024/01/22 08:01:21;;;;;;;2.70;1.50;;;;;;;;;;5024884;28;20190;-86
2024/01/22 08:03:47;;;;;;;3.53;1.60;;;;;;;;;;5003505;28;20183;-86
2024/01/22 08:06:13;;;;;;;2.70;1.90;;;;;;;;;;5009258;28;20219;-86
2024/01/22 08:08:41;;;;;;;3.37;1.80;;;;;;;;;;4991899;28;20262;-86
2024/01/22 08:11:07;;;;;;;3.23;1.60;;;;;;;;;;5013574;28;20187;-86
2024/01/22 08:13:33;;;;;;;2.60;1.50;;;;;;;;;;4993849;28;20286;-85
2024/01/22 08:15:59;;;;;;;2.70;1.60;;;;;;;;;;5013429;28;20325;-86
2024/01/22 08:18:25;;;;;;;2.30;1.60;;;;;;;;;;4996504;28;20195;-86
2024/01/22 08:20:52;;;;;;;2.57;1.50;;;;;;;;;;5035845;28;20194;-86
2024/01/22 08:23:18;;;;;;;2.63;1.70;;;;;;;;;;5019776;28;20201;-86
2024/01/22 08:25:45;;;;;;;2.13;1.60;;;;;;;;;;4995030;28;20215;-86
2024/01/22 08:28:11;;;;;;;3.33;1.80;;;;;;;;;;5028897;28;20194;-86
2024/01/22 08:30:37;;;;;;;3.13;1.83;;;;;;;;;;5010819;28;20201;-86
2024/01/22 08:33:03;;;;;;;3.37;1.53;;;;;;;;;;5029988;28;20210;-86
2024/01/22 08:35:29;;;;;;;3.57;1.80;;;;;;;;;;5014052;28;20284;-86
2024/01/22 08:37:55;;;;;;;2.07;1.80;;;;;;;;;;5038709;28;20183;-86
2024/01/22 08:40:23;;;;;;;4.93;1.97;;;;;;;;;;4995007;28;20281;-86
2024/01/22 08:42:50;;;;;;;6.43;2.40;;;;;;;;;;4998113;28;20281;-85
2024/01/22 08:45:16;;;;;;;4.23;1.87;;;;;;;;;;5032069;28;20202;-86
2024/01/22 08:47:46;;;;;;;3.57;1.90;;;;;;;;;;5023155;28;20210;-85
2024/01/22 08:50:17;;;;;;;6.20;2.20;;;;;;;;;;4994797;28;20539;-85
2024/01/22 08:52:44;;;;;;;4.43;2.00;;;;;;;;;;5000453;28;20185;-87
2024/01/22 08:55:10;;;;;;;3.47;1.97;;;;;;;;;;5031960;28;20217;-86
2024/01/22 08:57:36;;;;;;;3.97;1.77;;;;;;;;;;5010584;28;20662;-86
2024/01/22 09:00:10;;;;;;;5.40;2.30;;;;;;;;;;5010225;28;20276;-87
2024/01/22 09:02:40;;;;;;;4.73;1.83;;;;;;;;;;5010990;28;20647;-87
2024/01/22 09:05:09;;;;;;;4.60;2.20;;;;;;;;;;5013431;28;20602;-86
2024/01/22 09:07:36;;;;;;;6.00;2.20;;;;;;;;;;5009710;28;20226;-85
2024/01/22 09:10:05;;;;;;;4.70;2.27;;;;;;;;;;5000576;28;20662;-86
2024/01/22 09:12:31;;;;;;;6.00;2.40;;;;;;;;;;5018212;28;20611;-85
2024/01/22 09:14:57;;;;;;;3.47;2.27;;;;;;;;;;5036010;28;20245;-85
2024/01/22 09:17:23;;;;;;;5.03;2.27;;;;;;;;;;5015020;28;20255;-86
2024/01/22 09:19:49;;;;;;;6.33;2.43;;;;;;;;;;5011967;28;20247;-85
2024/01/22 09:22:15;;;;;;;6.10;2.43;;;;;;;;;;5016356;28;20545;-86
2024/01/22 09:24:41;;;;;;;5.67;2.70;;;;;;;;;;4997258;28;20218;-86
2024/01/22 09:27:08;;;;;;;3.60;2.03;;;;;;;;;;5032937;28;20221;-85
2024/01/22 09:29:34;;;;;;;4.23;1.80;;;;;;;;;;5016123;28;20175;-85
2024/01/22 09:32:00;;;;;;;2.57;1.90;;;;;;;;;;5038130;28;20193;-85
2024/01/22 09:34:26;;;;;;;4.47;2.50;;;;;;;;;;4997706;28;20588;-85
2024/01/22 09:36:52;;;;;;;4.33;2.37;;;;;;;;;;5027740;28;20207;-86
2024/01/22 09:39:19;;;;;;;3.13;2.10;;;;;;;;;;5033067;28;20183;-86
2024/01/22 09:41:46;;;;;;;5.57;2.30;;;;;;;;;;5019201;28;20187;-86
2024/01/22 09:44:13;;;;;;;4.73;2.20;;;;;;;;;;5013740;28;20186;-86
2024/01/22 09:46:39;;;;;;;3.23;2.00;;;;;;;;;;5014436;28;20214;-86
2024/01/22 09:49:05;;;;;;;4.37;2.30;;;;;;;;;;5015512;28;20195;-85
2024/01/22 09:51:35;;;;;;;3.33;2.07;;;;;;;;;;5014618;28;20254;-86
2024/01/22 09:54:06;;;;;;;4.50;2.70;;;;;;;;;;5029976;28;20185;-85
2024/01/22 09:56:33;;;;;;;6.87;2.00;;;;;;;;;;5027431;28;20183;-86
2024/01/22 09:59:01;;;;;;;3.80;2.27;;;;;;;;;;5034622;28;20186;-86
2024/01/22 10:01:28;;;;;;;4.43;2.17;;;;;;;;;;5030352;28;20194;-85
2024/01/22 10:03:55;;;;;;;6.87;2.03;;;;;;;;;;4998065;28;20194;-85
2024/01/22 10:06:22;;;;;;;4.70;2.27;;;;;;;;;;5014566;28;20305;-85
2024/01/22 10:08:56;;;;;;;7.20;2.30;;;;;;;;;;5013006;28;20194;-86
2024/01/22 10:11:23;;;;;;;3.67;2.00;;;;;;;;;;5014548;28;20281;-85
2024/01/22 10:13:52;;;;;;;3.33;2.23;;;;;;;;;;4996980;28;20186;-85
2024/01/22 10:16:19;;;;;;;6.63;2.60;;;;;;;;;;5006269;28;20565;-85
2024/01/22 10:18:58;;;;;;;4.90;2.40;;;;;;;;;;5015048;28;20189;-86
2024/01/22 10:21:25;;;;;;;4.67;2.13;;;;;;;;;;5011777;28;20182;-86
2024/01/22 10:23:57;;;;;;;4.93;2.30;;;;;;;;;;4998210;28;20243;-86
2024/01/22 10:26:23;;;;;;;6.70;2.30;;;;;;;;;;4995974;28;20242;-86
2024/01/22 10:28:50;;;;;;;5.70;2.30;;;;;;;;;;5015081;28;20187;-85
2024/01/22 10:31:16;;;;;;;3.33;1.90;;;;;;;;;;5007702;28;20230;-81
2024/01/22 10:33:43;;;;;;;7.13;2.10;;;;;;;;;;5019948;28;20193;-85
2024/01/22 10:36:15;;;;;;;6.23;2.10;;;;;;;;;;5033993;28;20231;-85
2024/01/22 10:38:42;;;;;;;5.10;2.33;;;;;;;;;;5010710;28;20195;-78
2024/01/22 10:41:20;;;;;;;3.67;2.40;;;;;;;;;;5028057;28;20587;-83
2024/01/22 10:43:47;;;;;;;4.00;2.20;;;;;;;;;;4901131;28;20228;-81
2024/01/22 10:46:14;;;;;;;4.23;2.03;;;;;;;;;;4956835;28;20252;-84
2024/01/22 10:48:42;;;;;;;5.63;2.40;;;;;;;;;;4870394;28;20197;-87
2024/01/22 10:51:08;;;;;;;3.47;1.87;;;;;;;;;;4892717;28;21267;-85
2024/01/22 10:53:35;;;;;;;3.93;2.40;;;;;;;;;;4896444;28;20218;-82
2024/01/22 10:56:02;;;;;;;7.53;2.57;;;;;;;;;;4959598;28;20205;-80
2024/01/22 10:58:32;;;;;;;4.20;2.13;;;;;;;;;;4928776;28;20356;-83
2024/01/22 11:01:02;;;;;;;4.80;2.43;;;;;;;;;;4992042;28;20194;-81
2024/01/22 11:03:28;;;;;;;4.03;2.33;;;;;;;;;;4985335;28;20178;-86
2024/01/22 11:05:59;;;;;;;5.50;2.20;;;;;;;;;;4878944;28;20202;-83
2024/01/22 11:08:26;;;;;;;4.23;2.23;;;;;;;;;;5010345;28;20252;-80
2024/01/22 11:10:54;;;;;;;4.60;2.63;;;;;;;;;;5026041;28;20272;-80
2024/01/22 11:13:21;;;;;;;7.20;2.77;;;;;;;;;;4981659;28;20280;-82
2024/01/22 11:15:47;;;;;;;7.07;3.00;;;;;;;;;;5027218;28;20195;-83
2024/01/22 11:18:14;;;;;;;3.80;2.60;;;;;;;;;;5021658;28;20638;-83
2024/01/22 11:20:40;;;;;;;3.63;2.20;;;;;;;;;;5010798;28;20190;-83
2024/01/22 11:23:09;;;;;;;4.50;2.60;;;;;;;;;;4882057;28;20190;-83
2024/01/22 11:25:36;;;;;;;4.67;2.20;;;;;;;;;;4954459;28;20306;-83
2024/01/22 11:28:04;;;;;;;5.37;2.10;;;;;;;;;;5029555;28;20211;-83
2024/01/22 11:30:35;;;;;;;5.97;2.50;;;;;;;;;;5005223;28;20186;-83
2024/01/22 11:33:01;;;;;;;3.90;2.30;;;;;;;;;;5021829;28;20182;-83
2024/01/22 11:35:33;;;;;;;4.47;2.33;;;;;;;;;;5021108;28;20207;-83
2024/01/22 11:38:01;;;;;;;4.00;2.30;;;;;;;;;;5026398;28;20277;-80
2024/01/22 11:40:46;;;;;;;3.63;2.33;;;;;;;;;;5020456;28;20670;-83
2024/01/22 11:43:13;;;;;;;5.43;2.70;;;;;;;;;;4971687;28;20260;-84
2024/01/22 11:45:39;;;;;;;4.40;2.00;;;;;;;;;;4961819;28;20301;-85
2024/01/22 11:48:15;;;;;;;5.37;2.60;;;;;;;;;;4920343;28;20217;-84
2024/01/22 11:50:41;;;;;;;4.43;2.40;;;;;;;;;;4927371;28;20206;-84
2024/01/22 11:53:07;;;;;;;3.83;2.20;;;;;;;;;;4885381;28;20241;-84
2024/01/22 11:55:33;;;;;;;3.10;2.33;;;;;;;;;;4930351;28;21737;-84
2024/01/22 11:58:00;;;;;;;3.60;2.33;;;;;;;;;;5030302;28;20221;-84
2024/01/22 12:00:26;;;;;;;5.17;2.50;;;;;;;;;;4864234;28;20237;-84
2024/01/22 12:02:56;;;;;;;2.73;2.27;;;;;;;;;;4860024;28;20220;-85
2024/01/22 12:05:23;;;;;;;3.73;2.20;;;;;;;;;;4932455;28;20221;-83
2024/01/22 12:07:51;;;;;;;4.47;2.30;;;;;;;;;;4838544;28;20242;-84
2024/01/22 12:10:22;;;;;;;5.37;2.27;;;;;;;;;;4905151;28;20286;-85
2024/01/22 12:12:49;;;;;;;4.53;2.50;;;;;;;;;;4948479;28;20244;-84
2024/01/22 12:15:15;;;;;;;3.37;2.27;;;;;;;;;;4910992;28;20309;-84
2024/01/22 12:17:45;;;;;;;3.63;2.30;;;;;;;;;;4996094;28;20206;-85
2024/01/22 12:20:11;;;;;;;3.47;2.40;;;;;;;;;;4907619;28;20685;-84
2024/01/22 12:22:37;;;;;;;4.10;2.77;;;;;;;;;;4945058;28;20202;-83
2024/01/22 12:25:04;;;;;;;5.23;3.50;;;;;;;;;;5021054;28;20248;-85
2024/01/22 12:27:30;;;;;;;3.80;2.50;;;;;;;;;;4845917;28;20434;-83
2024/01/22 12:30:17;;;;;;;7.30;5.73;;;;;;;;;;4870140;28;20253;-85
2024/01/22 12:32:54;;;;;;;3.63;2.43;;;;;;;;;;4892921;28;20190;-86
2024/01/22 12:35:24;;;;;;;5.23;3.40;;;;;;;;;;4995299;28;20851;-85
2024/01/22 12:37:50;;;;;;;3.93;2.30;;;;;;;;;;4850462;28;20334;-86
2024/01/22 12:40:17;;;;;;;5.87;3.43;;;;;;;;;;4889748;28;20194;-83
2024/01/22 12:42:44;;;;;;;5.40;4.20;;;;;;;;;;4891441;28;20206;-86
2024/01/22 12:45:12;;;;;;;3.73;2.60;;;;;;;;;;4820285;28;21032;-85
2024/01/22 12:47:40;;;;;;;4.30;3.00;;;;;;;;;;4916947;28;20210;-86
2024/01/22 12:50:06;;;;;;;7.63;6.63;;;;;;;;;;4818655;28;20183;-85
2024/01/22 12:52:32;;;;;;;11.03;8.70;;;;;;;;;;4833268;28;21180;-86
2024/01/22 12:55:01;;;;;;;3.47;2.97;;;;;;;;;;4959254;28;20759;-86
2024/01/22 12:57:27;;;;;;;7.00;5.60;;;;;;;;;;4855232;28;20285;-84
2024/01/22 12:59:53;;;;;;;7.43;6.33;;;;;;;;;;4929854;28;20187;-82
2024/01/22 13:02:20;;;;;;;5.73;3.50;;;;;;;;;;4907050;28;20190;-85
2024/01/22 13:04:48;;;;;;;4.60;3.90;;;;;;;;;;4799069;28;20670;-84
2024/01/22 13:07:14;;;;;;;4.27;3.60;;;;;;;;;;4949311;28;20234;-81
2024/01/22 13:09:41;;;;;;;3.33;2.40;;;;;;;;;;4853595;28;20254;-85
2024/01/22 13:12:08;;;;;;;4.20;2.20;;;;;;;;;;4811816;28;20298;-85
2024/01/22 13:14:34;;;;;;;3.77;2.60;;;;;;;;;;4863090;28;20226;-84
2024/01/22 13:17:04;;;;;;;5.13;4.00;;;;;;;;;;4800649;28;20179;-85
2024/01/22 13:19:33;;;;;;;4.93;2.73;;;;;;;;;;4791820;28;20888;-84
2024/01/22 13:21:59;;;;;;;3.87;2.40;;;;;;;;;;4938806;28;20190;-86
2024/01/22 13:24:27;;;;;;;6.67;3.50;;;;;;;;;;4791547;28;20219;-84
2024/01/22 13:26:54;;;;;;;10.50;5.00;;;;;;;;;;4872891;28;20638;-82
2024/01/22 13:29:21;;;;;;;5.13;2.90;;;;;;;;;;4906326;28;20197;-85
2024/01/22 13:31:47;;;;;;;4.97;2.57;;;;;;;;;;4872867;28;20190;-84
2024/01/22 13:34:15;;;;;;;8.57;4.50;;;;;;;;;;4972122;28;20219;-81
2024/01/22 13:36:42;;;;;;;2.97;2.07;;;;;;;;;;4903612;28;20193;-84
2024/01/22 13:39:09;;;;;;;2.90;1.77;;;;;;;;;;4866488;28;21664;-84
2024/01/22 13:41:35;;;;;;;5.10;2.17;;;;;;;;;;4922219;28;20794;-85
2024/01/22 13:44:05;;;;;;;4.00;2.77;;;;;;;;;;4864239;28;20197;-85
2024/01/22 13:46:32;;;;;;;4.00;2.20;;;;;;;;;;4871007;28;20218;-84
2024/01/22 13:48:59;;;;;;;2.17;1.63;;;;;;;;;;4969471;28;20183;-84
2024/01/22 13:51:25;;;;;;;6.40;2.30;;;;;;;;;;4848571;28;20179;-85
2024/01/22 13:53:51;;;;;;;3.17;1.80;;;;;;;;;;4893676;28;20205;-82
2024/01/22 13:56:18;;;;;;;5.23;1.90;;;;;;;;;;4841383;28;20300;-85
2024/01/22 13:58:44;;;;;;;7.00;3.43;;;;;;;;;;4951606;28;20214;-85
2024/01/22 14:01:11;;;;;;;4.97;2.57;;;;;;;;;;4963982;28;20205;-84
2024/01/22 14:03:38;;;;;;;9.73;4.13;;;;;;;;;;4876946;28;20542;-83
2024/01/22 14:06:06;;;;;;;5.53;3.03;;;;;;;;;;4851962;28;20433;-85
2024/01/22 14:08:33;;;;;;;6.43;3.00;;;;;;;;;;4921430;28;20179;-85
2024/01/22 14:11:01;;;;;;;5.63;2.77;;;;;;;;;;4923862;28;20198;-85
2024/01/22 14:13:28;;;;;;;3.73;2.13;;;;;;;;;;4801187;28;20183;-82
2024/01/22 14:15:54;;;;;;;4.17;1.83;;;;;;;;;;5024709;28;20214;-84
2024/01/22 14:18:23;;;;;;;3.67;2.20;;;;;;;;;;4821200;28;20174;-85
2024/01/22 14:20:49;;;;;;;3.07;1.70;;;;;;;;;;4887721;28;20205;-82
2024/01/22 14:23:15;;;;;;;2.20;1.50;;;;;;;;;;4868629;28;20174;-84
2024/01/22 14:25:42;;;;;;;6.27;3.00;;;;;;;;;;4875186;28;22166;-85
2024/01/22 14:28:08;;;;;;;13.03;5.57;;;;;;;;;;4954744;28;20691;-85
2024/01/22 14:30:35;;;;;;;9.57;4.40;;;;;;;;;;4874128;28;20220;-84
2024/01/22 14:33:01;;;;;;;4.30;2.60;;;;;;;;;;4878488;28;20174;-85
2024/01/22 14:35:27;;;;;;;30.00;11.37;;;;;;;;;;4903026;28;20272;-84
2024/01/22 14:37:53;;;;;;;9.43;4.20;;;;;;;;;;4882194;28;20202;-82
2024/01/22 14:40:20;;;;;;;4.97;2.50;;;;;;;;;;4932730;28;20296;-82